x

South Bass Island, Oh (sbio1) Weather Station

11:00pm - Sun 21st Sep 2014 All times are CDT. -5 hours from GMT.

  • Wind
    33mph, 37mph gusts
  • Air Temp 56°f
  • Sea Pressure 1015.2mb
  • South Bass Island, Oh
  • South Bass Island, Oh

More Historic Weather Station data

Upgrade to MSW Pro to gain access to the past 30 days of data for over 8000 Wavebouys and Weather Stations around the globe.

Join Pro

Comparision Forecast

View Surf forecast
   
Sun 09/21 11:00pm 33 37 mph 1015.2mb 56f
10:00pm 26 30 mph 1014.6mb 57f
9:00pm 25 30 mph 1013.7mb 58f
8:00pm 31 34 mph 1012.2mb 58f
7:00pm 26 32 mph 1010.7mb 60f
6:00pm 31 34 mph 1009mb 61f
5:00pm 32 37 mph 1007.8mb 64f
4:00pm 33 37 mph 1007.3mb 63f
3:00pm 36 39 mph 1006.5mb 65f
2:00pm 32 36 mph 1005.9mb 66f
1:00pm 34 38 mph 1005.9mb 67f
12:00pm 32 36 mph 1005.5mb 68f
11:00am 31 33 mph 1005.9mb 67f
10:00am 26 29 mph 1005.5mb 67f
9:00am 28 31 mph 1005.4mb 67f
8:00am 26 31 mph 1005.1mb 67f
7:00am 33 44 mph 1004.6mb 69f
6:00am 25 29 mph 1003.8mb 69f
5:00am 23 25 mph 1004.1mb 68f
4:00am 16 20 mph 1004.8mb 67f
3:00am 23 25 mph 1005.9mb 67f
2:00am 11 15 mph 1006.9mb 66f
1:00am 18 20 mph 1008.6mb 66f
12:00am 18 21 mph 1009.3mb 66f
Sat 09/20 11:00pm 18 20 mph 1009.9mb 66f
10:00pm 21 23 mph 1010.5mb 66f
9:00pm 18 22 mph 1010.8mb 69f
8:00pm 29 31 mph 1012mb 67f
7:00pm 16 17 mph 1010.9mb 73f
6:00pm 18 20 mph 1009.9mb 74f
5:00pm 15 17 mph 1010.3mb 75f
4:00pm 18 20 mph 1010.8mb 76f
3:00pm 21 23 mph 1011.5mb 76f
2:00pm 21 24 mph 1011.9mb 75f
1:00pm 22 24 mph 1012.8mb 74f
12:00pm 17 20 mph 1014.2mb 71f
11:00am 18 21 mph 1015.2mb 70f
10:00am 15 16 mph 1016.4mb 67f
9:00am 17 18 mph 1016.5mb 66f
8:00am 20 22 mph 1016.5mb 65f
7:00am 16 18 mph 1016.9mb 62f
6:00am 15 18 mph 1017.2mb 62f
5:00am 17 21 mph 1016.7mb 63f
4:00am 17 18 mph 1016.1mb 62f
3:00am 18 21 mph 1016.2mb 63f
2:00am 10 13 mph 1017.2mb 63f
1:00am 6 9 mph 1017.1mb 63f
12:00am 8 10 mph 1017.6mb 63f
Fri 09/19 11:00pm 7 10 mph 1018.1mb 64f
10:00pm 6 10 mph 1018.5mb 65f
9:00pm 14 15 mph 1018.6mb 65f
8:00pm 13 15 mph 1018.9mb 64f
7:00pm 16 18 mph 1019mb 64f
6:00pm 6 10 mph 1019.8mb 64f
5:00pm 6 10 mph 1020.3mb 65f
4:00pm 8 11 mph 1020.6mb 64f
3:00pm 6 9 mph 1021.9mb 64f
2:00pm 7 9 mph 1022.3mb 64f
1:00pm 6 7 mph 1023mb 63f
12:00pm 6 7 mph 1023.5mb 62f
11:00am 3 5 mph 1024.4mb 62f
10:00am 2 3 mph 1024.7mb 62f
9:00am  -  1 mph 1024.5mb 62f
8:00am 5 6 mph 1024.5mb 58f
7:00am 5
mph
1024.3mb 56f
6:00am 7
mph
1023.8mb 55f
5:00am 5 7 mph 1023.6mb 55f
4:00am 6 7 mph 1023.4mb 55f
3:00am 7 9 mph 1023.5mb 55f
2:00am 3 6 mph 1023.6mb 55f
1:00am 7 9 mph 1023.6mb 55f
12:00am 5 8 mph 1023.4mb 55f
Thu 09/18 11:00pm 7 9 mph 1023.1mb 56f
10:00pm 6 10 mph 1022.7mb 56f
9:00pm 8 11 mph 1022mb 58f
8:00pm 8 15 mph 1021.5mb 59f
7:00pm 5 9 mph 1020.7mb 60f
6:00pm 7 10 mph 1020.4mb 63f
5:00pm 3 6 mph 1020.2mb 66f
4:00pm 7 9 mph 1020.1mb 66f
3:00pm 3 7 mph 1020.2mb 66f
2:00pm 3 10 mph 1020.2mb 67f
1:00pm 2 6 mph 1021mb 64f
12:00pm 7 10 mph 1020.9mb 64f
11:00am 6 9 mph 1020.5mb 64f
10:00am 2 5 mph 1019.9mb 66f
9:00am 7 9 mph 1019.5mb 64f
8:00am 5 9 mph 1018.9mb 61f
7:00am 6 8 mph 1018.5mb 60f
6:00am 6
mph
1018mb 60f